createdAt,value
2019-03-25T00:00:01.972Z,136.00
2019-03-25T00:02:36.547Z,129.83
2019-03-25T00:05:09.258Z,146.50
2019-03-25T00:07:42.211Z,132.27
2019-03-25T00:10:14.604Z,130.13
2019-03-25T00:12:47.157Z,139.63
2019-03-25T00:15:20.481Z,141.13
2019-03-25T00:17:53.081Z,138.53
2019-03-25T00:20:25.904Z,131.20
2019-03-25T00:22:58.225Z,130.63
2019-03-25T00:25:30.928Z,132.10
2019-03-25T00:28:03.486Z,133.40
2019-03-25T00:30:35.403Z,125.37
2019-03-25T00:33:10.073Z,136.70
2019-03-25T00:35:44.132Z,125.73
2019-03-25T00:38:16.560Z,135.93
2019-03-25T00:40:50.261Z,134.93
2019-03-25T00:43:23.394Z,132.55
2019-03-25T00:45:57.469Z,131.90
2019-03-25T00:48:29.386Z,143.40
2019-03-25T00:51:02.499Z,131.43
2019-03-25T00:53:35.622Z,131.90
2019-03-25T00:56:07.799Z,128.13
2019-03-25T00:58:41.519Z,132.17
2019-03-25T01:01:16.039Z,135.03
2019-03-25T01:03:47.889Z,142.27
2019-03-25T01:06:20.355Z,136.00
2019-03-25T01:08:53.349Z,146.63
2019-03-25T01:11:26.518Z,136.93
2019-03-25T01:13:58.413Z,144.67
2019-03-25T01:16:31.378Z,143.43
2019-03-25T01:19:05.482Z,136.63
2019-03-25T01:21:38.477Z,150.27
2019-03-25T01:24:11.559Z,139.77
2019-03-25T01:26:44.607Z,139.47
2019-03-25T01:29:16.608Z,138.33
2019-03-25T01:31:49.398Z,143.17
2019-03-25T01:34:22.615Z,152.70
2019-03-25T01:36:56.607Z,140.40
2019-03-25T01:39:28.500Z,135.87
2019-03-25T01:42:02.640Z,131.07
2019-03-25T01:44:35.592Z,139.83
2019-03-25T01:47:08.520Z,142.20
2019-03-25T01:49:41.971Z,129.70
2019-03-25T01:52:15.700Z,142.43
2019-03-25T01:54:49.663Z,139.80
2019-03-25T01:57:22.580Z,127.60
2019-03-25T01:59:57.154Z,142.70
2019-03-25T02:02:31.689Z,128.63
2019-03-25T02:05:05.970Z,125.53
2019-03-25T02:07:40.625Z,134.67
2019-03-25T02:10:14.212Z,133.30
2019-03-25T02:12:46.741Z,129.10
2019-03-25T02:15:19.807Z,129.57
2019-03-25T02:17:52.689Z,120.70
2019-03-25T02:20:26.988Z,121.10
2019-03-25T02:23:00.931Z,136.63
2019-03-25T02:25:34.816Z,126.92
2019-03-25T02:28:08.739Z,129.63
2019-03-25T02:30:40.637Z,115.80
2019-03-25T02:33:13.896Z,121.97
2019-03-25T02:35:46.676Z,127.10
2019-03-25T02:38:20.757Z,128.37
2019-03-25T02:40:52.780Z,123.07
2019-03-25T02:43:25.725Z,111.20
2019-03-25T02:45:59.833Z,120.07
2019-03-25T02:48:32.858Z,126.93
2019-03-25T02:51:07.260Z,118.40
2019-03-25T02:53:40.793Z,130.53
2019-03-25T02:56:13.742Z,127.90
2019-03-25T02:58:47.725Z,118.80
2019-03-25T03:01:20.007Z,128.67
2019-03-25T03:03:53.938Z,135.93
2019-03-25T03:06:25.760Z,138.40
2019-03-25T03:08:57.853Z,139.07
2019-03-25T03:11:31.968Z,132.20
2019-03-25T03:14:05.861Z,128.73
2019-03-25T03:16:37.798Z,118.17
2019-03-25T03:19:11.117Z,136.20
2019-03-25T03:21:44.139Z,132.13
2019-03-25T03:24:17.181Z,137.93
2019-03-25T03:26:51.111Z,139.57
2019-03-25T03:29:22.986Z,131.37
2019-03-25T03:31:55.855Z,131.77
2019-03-25T03:34:27.662Z,132.83
2019-03-25T03:37:03.303Z,144.63
2019-03-25T03:39:35.573Z,133.63
2019-03-25T03:42:09.493Z,140.90
2019-03-25T03:44:43.630Z,150.27
2019-03-25T03:47:17.231Z,131.73
2019-03-25T03:49:51.573Z,131.37
2019-03-25T03:52:26.431Z,143.80
2019-03-25T03:55:00.014Z,144.50
2019-03-25T03:57:33.281Z,151.17
2019-03-25T04:00:07.269Z,141.43
2019-03-25T04:02:41.349Z,139.37
2019-03-25T04:05:14.449Z,146.33
2019-03-25T04:07:48.519Z,136.93
2019-03-25T04:10:20.611Z,144.00
2019-03-25T04:12:53.626Z,139.10
2019-03-25T04:15:30.808Z,137.30
2019-03-25T04:18:03.696Z,140.05
2019-03-25T04:20:38.530Z,141.80
2019-03-25T04:23:14.375Z,141.47
2019-03-25T04:25:47.575Z,149.63
2019-03-25T04:28:20.704Z,146.77
2019-03-25T04:30:54.510Z,132.67
2019-03-25T04:33:28.670Z,145.57
2019-03-25T04:36:02.720Z,160.10
2019-03-25T04:38:35.663Z,141.77
2019-03-25T04:41:09.888Z,147.53
2019-03-25T04:43:47.382Z,154.77
2019-03-25T04:46:23.683Z,142.83
2019-03-25T04:48:56.936Z,144.43
2019-03-25T04:51:34.096Z,152.37
2019-03-25T04:54:16.017Z,131.70
2019-03-25T04:56:49.620Z,145.40
2019-03-25T04:59:23.705Z,134.73
2019-03-25T05:01:56.890Z,143.90
2019-03-25T05:04:29.881Z,139.23
2019-03-25T05:07:04.235Z,143.17
2019-03-25T05:09:46.243Z,146.27
2019-03-25T05:12:23.580Z,134.63
2019-03-25T05:14:59.011Z,141.37
2019-03-25T05:17:37.675Z,138.97
2019-03-25T05:20:17.936Z,144.63
2019-03-25T05:22:58.720Z,141.83
2019-03-25T05:25:35.665Z,138.70
2019-03-25T05:28:12.339Z,149.27
2019-03-25T05:30:52.884Z,129.93
2019-03-25T05:33:28.822Z,136.33
2019-03-25T05:36:04.265Z,138.53
2019-03-25T05:38:39.851Z,132.77
2019-03-25T05:41:14.268Z,147.70
2019-03-25T05:44:01.387Z,130.60
2019-03-25T05:46:35.314Z,146.03
2019-03-25T05:49:08.889Z,133.73
2019-03-25T05:51:46.269Z,151.73
2019-03-25T05:54:24.933Z,141.10
2019-03-25T05:57:03.138Z,152.00
2019-03-25T05:59:36.649Z,151.97
2019-03-25T06:02:10.710Z,137.90
2019-03-25T06:04:51.627Z,138.67
2019-03-25T06:07:35.757Z,147.30
2019-03-25T06:10:11.621Z,144.70
2019-03-25T06:12:50.640Z,141.57
2019-03-25T06:15:34.719Z,145.77
2019-03-25T06:18:21.992Z,142.50
2019-03-25T06:20:58.641Z,131.57
2019-03-25T06:23:33.708Z,145.17
2019-03-25T06:26:13.171Z,134.78
2019-03-25T06:28:48.508Z,158.67
2019-03-25T06:31:24.654Z,143.13
2019-03-25T06:33:58.237Z,144.67
2019-03-25T06:36:36.945Z,140.57
2019-03-25T06:39:13.802Z,140.00
2019-03-25T06:41:47.306Z,140.57
2019-03-25T06:44:20.417Z,143.43
2019-03-25T06:46:55.672Z,141.17
2019-03-25T06:49:31.545Z,136.10
2019-03-25T06:52:07.922Z,138.70
2019-03-25T06:54:45.099Z,134.07
2019-03-25T06:57:25.144Z,149.53
2019-03-25T06:59:53.716Z,155.17
2019-03-25T07:02:30.232Z,147.63
2019-03-25T07:05:03.593Z,133.30
2019-03-25T07:07:37.462Z,129.05
2019-03-25T07:10:13.423Z,137.80
2019-03-25T07:12:50.682Z,143.93
2019-03-25T07:15:27.209Z,131.77
2019-03-25T07:17:59.228Z,132.00
2019-03-25T07:20:32.306Z,136.90
2019-03-25T07:23:06.865Z,141.07
2019-03-25T07:25:44.103Z,151.17
2019-03-25T07:28:16.596Z,136.00
2019-03-25T07:30:51.489Z,151.87
2019-03-25T07:33:36.104Z,152.10
2019-03-25T07:36:07.954Z,152.23
2019-03-25T07:38:42.952Z,129.93
2019-03-25T07:41:17.186Z,151.73
2019-03-25T07:43:53.449Z,136.00
2019-03-25T07:46:26.657Z,142.27
2019-03-25T07:49:02.977Z,131.78
2019-03-25T07:51:38.444Z,147.60
2019-03-25T07:54:10.684Z,153.53
2019-03-25T07:56:47.259Z,144.80
2019-03-25T07:59:21.565Z,132.23
2019-03-25T08:01:55.624Z,131.03
2019-03-25T08:04:29.522Z,126.53
2019-03-25T08:07:05.472Z,124.70
2019-03-25T08:09:39.295Z,139.10
2019-03-25T08:12:13.585Z,143.23
2019-03-25T08:14:49.705Z,125.33
2019-03-25T08:17:25.512Z,148.50
2019-03-25T08:19:59.630Z,154.73
2019-03-25T08:22:34.251Z,136.07
2019-03-25T08:25:08.977Z,147.37
2019-03-25T08:27:44.913Z,142.33
2019-03-25T08:30:20.373Z,138.43
2019-03-25T08:32:56.243Z,119.27
2019-03-25T08:35:33.218Z,116.13
2019-03-25T08:38:07.519Z,113.03
2019-03-25T08:40:43.109Z,98.50
2019-03-25T08:43:19.571Z,108.50
2019-03-25T08:45:56.065Z,117.33
2019-03-25T08:48:30.978Z,99.63
2019-03-25T08:51:03.728Z,113.90
2019-03-25T08:53:36.656Z,104.90
2019-03-25T08:56:10.863Z,100.60
2019-03-25T08:58:46.531Z,98.47
2019-03-25T09:01:21.168Z,95.60
2019-03-25T09:03:55.805Z,100.50
2019-03-25T09:06:31.276Z,93.87
2019-03-25T09:09:06.706Z,104.97
2019-03-25T09:11:43.791Z,88.17
2019-03-25T09:14:17.242Z,95.47
2019-03-25T09:16:51.996Z,77.93
2019-03-25T09:19:27.744Z,88.85
2019-03-25T09:22:01.168Z,90.77
2019-03-25T09:24:37.684Z,94.20
2019-03-25T09:27:12.328Z,81.83
2019-03-25T09:29:48.886Z,76.83
2019-03-25T09:32:24.073Z,79.40
2019-03-25T09:34:59.158Z,71.02
2019-03-25T09:37:31.778Z,64.63
2019-03-25T09:40:08.817Z,72.33
2019-03-25T09:42:42.064Z,71.00
2019-03-25T09:45:18.839Z,69.97
2019-03-25T09:47:53.367Z,63.80
2019-03-25T09:50:27.992Z,74.50
2019-03-25T09:53:02.200Z,69.97
2019-03-25T09:55:43.475Z,63.97
2019-03-25T09:58:19.251Z,64.73
2019-03-25T10:00:52.235Z,66.20
2019-03-25T10:03:26.240Z,63.00
2019-03-25T10:06:01.799Z,67.70
2019-03-25T10:08:35.847Z,64.77
2019-03-25T10:11:09.068Z,64.50
2019-03-25T10:13:43.821Z,62.48
2019-03-25T10:16:19.099Z,60.40
2019-03-25T10:18:53.588Z,63.47
2019-03-25T10:21:30.528Z,54.27
2019-03-25T10:24:03.206Z,40.43
2019-03-25T10:26:39.434Z,47.33
2019-03-25T10:29:15.049Z,35.30
2019-03-25T10:31:49.647Z,37.30
2019-03-25T10:34:23.860Z,43.30
2019-03-25T10:37:00.419Z,33.23
2019-03-25T10:39:38.369Z,37.50
2019-03-25T10:42:13.448Z,34.33
2019-03-25T10:44:46.213Z,29.23
2019-03-25T10:47:20.644Z,29.80
2019-03-25T10:49:55.959Z,26.57
2019-03-25T10:52:30.736Z,22.17
2019-03-25T10:55:03.621Z,25.60
2019-03-25T10:57:40.278Z,45.37
2019-03-25T11:00:13.618Z,45.67
2019-03-25T11:02:47.449Z,22.33
2019-03-25T11:05:20.434Z,24.97
2019-03-25T11:07:56.662Z,17.33
2019-03-25T11:10:30.322Z,25.17
2019-03-25T11:13:05.271Z,16.50
2019-03-25T11:15:42.292Z,19.63
2019-03-25T11:18:15.926Z,26.17
2019-03-25T11:20:50.874Z,19.17
2019-03-25T11:23:25.398Z,15.20
2019-03-25T11:25:58.249Z,17.27
2019-03-25T11:28:39.363Z,13.60
2019-03-25T11:31:12.634Z,14.30
2019-03-25T11:33:49.624Z,12.33
2019-03-25T11:36:23.590Z,13.33
2019-03-25T11:38:57.536Z,18.43
2019-03-25T11:41:34.796Z,10.50
2019-03-25T11:44:10.390Z,10.10
2019-03-25T11:46:47.655Z,8.57
2019-03-25T11:49:25.500Z,10.93
2019-03-25T11:52:02.637Z,32.97
2019-03-25T11:54:34.491Z,13.30
2019-03-25T11:57:08.109Z,11.70
2019-03-25T11:59:42.934Z,8.03
2019-03-25T12:02:17.713Z,9.70
2019-03-25T12:04:52.813Z,16.00
2019-03-25T12:07:26.718Z,10.98
2019-03-25T12:10:01.133Z,7.73
2019-03-25T12:12:35.811Z,13.53
2019-03-25T12:15:09.718Z,14.75
2019-03-25T12:17:44.127Z,8.37
2019-03-25T12:20:18.580Z,5.33
2019-03-25T12:22:53.080Z,11.53
2019-03-25T12:25:26.759Z,10.20
2019-03-25T12:28:01.258Z,10.17
2019-03-25T12:30:35.795Z,5.73
2019-03-25T12:33:09.698Z,6.83
2019-03-25T12:35:41.921Z,7.43
2019-03-25T12:38:15.165Z,6.15
2019-03-25T12:40:48.217Z,15.70
2019-03-25T12:43:22.636Z,5.50
2019-03-25T12:45:56.868Z,7.37
2019-03-25T12:48:31.421Z,7.07
2019-03-25T12:51:08.127Z,18.37
2019-03-25T12:53:48.338Z,12.83
2019-03-25T12:56:22.837Z,10.07
2019-03-25T12:58:55.766Z,6.27
2019-03-25T13:01:29.185Z,6.70
2019-03-25T13:04:05.647Z,22.70
2019-03-25T13:06:41.915Z,16.93
2019-03-25T13:09:16.529Z,8.43
2019-03-25T13:11:49.152Z,6.37
2019-03-25T13:14:23.935Z,7.70
2019-03-25T13:16:57.956Z,5.80
2019-03-25T13:19:31.941Z,4.47
2019-03-25T13:22:06.364Z,4.47
2019-03-25T13:24:52.594Z,6.20
2019-03-25T13:27:27.805Z,9.57
2019-03-25T13:30:00.146Z,4.10
2019-03-25T13:32:35.099Z,5.17
2019-03-25T13:35:09.771Z,4.50
2019-03-25T13:37:47.130Z,5.57
2019-03-25T13:40:22.245Z,8.80
2019-03-25T13:43:00.880Z,7.23
2019-03-25T13:45:35.242Z,3.33
2019-03-25T13:48:07.195Z,3.10
2019-03-25T13:50:42.905Z,3.40
2019-03-25T13:53:16.706Z,4.90
2019-03-25T13:55:49.371Z,4.73
2019-03-25T13:58:25.752Z,8.33
2019-03-25T14:01:00.419Z,3.97
2019-03-25T14:03:36.539Z,3.17
2019-03-25T14:06:13.430Z,4.83
2019-03-25T14:08:48.233Z,3.60
2019-03-25T14:11:22.623Z,2.50
2019-03-25T14:13:57.195Z,3.10
2019-03-25T14:16:31.533Z,4.10
2019-03-25T14:19:13.000Z,7.00
2019-03-25T14:21:45.609Z,5.03
2019-03-25T14:24:21.633Z,4.33
2019-03-25T14:26:55.217Z,4.93
2019-03-25T14:29:27.286Z,5.67
2019-03-25T14:32:00.288Z,7.93
2019-03-25T14:34:44.217Z,6.97
2019-03-25T14:37:09.786Z,3.70
2019-03-25T14:39:46.204Z,8.40
2019-03-25T14:42:18.191Z,3.20
2019-03-25T14:44:51.420Z,6.80
2019-03-25T14:47:25.093Z,12.93
2019-03-25T14:49:57.836Z,5.73
2019-03-25T14:52:30.545Z,3.30
2019-03-25T14:55:04.482Z,2.67
2019-03-25T14:57:37.548Z,5.30
2019-03-25T15:00:24.705Z,6.33
2019-03-25T15:02:50.457Z,3.80
2019-03-25T15:05:25.459Z,3.10
2019-03-25T15:07:59.647Z,3.57
2019-03-25T15:10:36.974Z,5.00
2019-03-25T15:13:12.283Z,4.30
2019-03-25T15:15:48.601Z,5.15
2019-03-25T15:18:32.617Z,4.33
2019-03-25T15:21:15.800Z,3.97
2019-03-25T15:23:48.543Z,3.53
2019-03-25T15:26:21.904Z,2.37
2019-03-25T15:28:54.491Z,2.83
2019-03-25T15:31:30.300Z,2.70
2019-03-25T15:34:03.862Z,8.73
2019-03-25T15:36:37.494Z,3.40
2019-03-25T15:39:09.966Z,3.63
2019-03-25T15:41:43.637Z,4.83
2019-03-25T15:44:18.218Z,3.73
2019-03-25T15:46:55.873Z,4.90
2019-03-25T15:49:29.196Z,3.35
2019-03-25T15:52:05.749Z,4.10
2019-03-25T15:54:40.330Z,8.37
2019-03-25T15:57:14.561Z,7.37
2019-03-25T15:59:48.619Z,20.40
2019-03-25T16:02:23.486Z,3.30
2019-03-25T16:04:59.148Z,4.10
2019-03-25T16:07:33.760Z,3.20
2019-03-25T16:10:08.299Z,2.70
2019-03-25T16:12:42.733Z,2.50
2019-03-25T16:15:16.479Z,7.73
2019-03-25T16:17:50.038Z,3.53
2019-03-25T16:20:21.914Z,3.20
2019-03-25T16:22:54.725Z,2.50
2019-03-25T16:25:28.951Z,3.10
2019-03-25T16:28:02.213Z,2.13
2019-03-25T16:30:35.885Z,1.97
2019-03-25T16:33:14.549Z,3.17
2019-03-25T16:35:48.605Z,5.10
2019-03-25T16:38:23.632Z,2.20
2019-03-25T16:40:59.450Z,4.00
2019-03-25T16:43:32.857Z,3.37
2019-03-25T16:46:05.062Z,4.50
2019-03-25T16:48:39.911Z,3.50
2019-03-25T16:51:12.779Z,3.53
2019-03-25T16:53:45.041Z,3.50
2019-03-25T16:56:18.027Z,3.77
2019-03-25T16:58:51.821Z,3.30
2019-03-25T17:01:23.983Z,3.40
2019-03-25T17:03:56.960Z,3.98
2019-03-25T17:06:29.913Z,3.50
2019-03-25T17:09:02.899Z,8.83
2019-03-25T17:11:36.874Z,4.20
2019-03-25T17:14:09.508Z,3.60
2019-03-25T17:16:41.819Z,4.40
2019-03-25T17:19:16.139Z,4.73
2019-03-25T17:21:57.665Z,3.80
2019-03-25T17:24:24.674Z,4.30
2019-03-25T17:26:59.071Z,4.77
2019-03-25T17:29:31.188Z,5.77
2019-03-25T17:32:05.070Z,7.00
2019-03-25T17:34:38.234Z,6.87
2019-03-25T17:37:13.427Z,4.50
2019-03-25T17:39:48.629Z,5.57
2019-03-25T17:42:21.216Z,5.93
2019-03-25T17:44:55.309Z,5.03
2019-03-25T17:47:30.760Z,4.22
2019-03-25T17:50:04.346Z,3.60
2019-03-25T17:52:39.025Z,3.70
2019-03-25T17:55:13.080Z,4.27
2019-03-25T17:57:46.110Z,4.67
2019-03-25T18:00:36.118Z,6.40
2019-03-25T18:03:11.219Z,6.73
2019-03-25T18:05:45.276Z,6.43
2019-03-25T18:08:17.896Z,6.97
2019-03-25T18:10:51.676Z,5.07
2019-03-25T18:13:24.299Z,4.97
2019-03-25T18:15:57.288Z,6.67
2019-03-25T18:18:30.229Z,4.77
2019-03-25T18:21:03.166Z,5.90
2019-03-25T18:23:36.265Z,6.67
2019-03-25T18:26:09.576Z,5.90
2019-03-25T18:28:43.582Z,7.93
2019-03-25T18:31:18.160Z,7.75
2019-03-25T18:33:51.261Z,9.77
2019-03-25T18:36:24.366Z,13.93
2019-03-25T18:38:57.755Z,6.70
2019-03-25T18:41:30.356Z,8.83
2019-03-25T18:44:02.291Z,8.03
2019-03-25T18:46:35.751Z,9.27
2019-03-25T18:49:09.551Z,9.43
2019-03-25T18:51:45.458Z,8.47
2019-03-25T18:54:20.500Z,11.97
2019-03-25T18:56:57.754Z,16.13
2019-03-25T18:59:32.400Z,8.07
2019-03-25T19:02:11.456Z,6.20
2019-03-25T19:04:44.755Z,6.87
2019-03-25T19:07:27.520Z,6.93
2019-03-25T19:10:01.965Z,6.17
2019-03-25T19:12:37.612Z,6.67
2019-03-25T19:15:09.871Z,6.70
2019-03-25T19:17:47.074Z,7.03
2019-03-25T19:20:22.405Z,7.53
2019-03-25T19:22:59.793Z,6.43
2019-03-25T19:25:50.213Z,6.40
2019-03-25T19:28:42.248Z,12.30
2019-03-25T19:31:18.734Z,5.97
2019-03-25T19:34:00.043Z,6.10
2019-03-25T19:36:48.832Z,7.33
2019-03-25T19:39:26.183Z,5.93
2019-03-25T19:42:02.902Z,4.40
2019-03-25T19:44:40.696Z,4.77
2019-03-25T19:47:15.049Z,4.70
2019-03-25T19:49:47.016Z,5.83
2019-03-25T19:52:19.167Z,4.33
2019-03-25T19:54:58.770Z,3.77
2019-03-25T19:57:32.921Z,3.80
2019-03-25T20:00:10.144Z,5.13
2019-03-25T20:02:42.883Z,3.63
2019-03-25T20:05:18.953Z,4.72
2019-03-25T20:07:51.842Z,3.27
2019-03-25T20:10:30.965Z,4.30
2019-03-25T20:13:04.066Z,5.00
2019-03-25T20:15:46.144Z,4.83
2019-03-25T20:18:14.026Z,6.37
2019-03-25T20:20:50.526Z,6.33
2019-03-25T20:23:24.940Z,4.90
2019-03-25T20:25:57.849Z,5.30
2019-03-25T20:28:30.878Z,5.60
2019-03-25T20:31:04.985Z,7.73
2019-03-25T20:33:39.777Z,4.90
2019-03-25T20:36:13.868Z,5.63
2019-03-25T20:38:49.301Z,5.43
2019-03-25T20:41:20.159Z,5.83
2019-03-25T20:43:54.949Z,6.10
2019-03-25T20:46:27.292Z,5.87
2019-03-25T20:49:01.494Z,5.60
2019-03-25T20:51:33.995Z,7.50
2019-03-25T20:54:05.965Z,6.05
2019-03-25T20:56:39.893Z,6.60
2019-03-25T20:59:13.128Z,5.67
2019-03-25T21:01:49.621Z,4.87
2019-03-25T21:04:23.927Z,5.63
2019-03-25T21:06:59.638Z,6.40
2019-03-25T21:09:32.621Z,6.00
2019-03-25T21:12:07.741Z,5.63
2019-03-25T21:14:44.414Z,5.90
2019-03-25T21:17:18.136Z,8.10
2019-03-25T21:19:54.486Z,5.90
2019-03-25T21:22:28.193Z,7.90
2019-03-25T21:25:01.244Z,6.20
2019-03-25T21:27:34.209Z,6.13
2019-03-25T21:30:09.013Z,6.07
2019-03-25T21:32:57.262Z,6.03
2019-03-25T21:35:18.554Z,6.00
2019-03-25T21:37:53.779Z,10.83
2019-03-25T21:40:28.182Z,5.40
2019-03-25T21:43:03.049Z,5.10
2019-03-25T21:45:37.191Z,5.70
2019-03-25T21:48:10.198Z,5.93
2019-03-25T21:50:44.126Z,4.90
2019-03-25T21:53:16.202Z,4.80
2019-03-25T21:55:50.870Z,4.40
2019-03-25T21:58:25.122Z,3.80
2019-03-25T22:00:58.224Z,4.70
2019-03-25T22:03:32.654Z,3.87
2019-03-25T22:06:07.446Z,4.00
2019-03-25T22:08:40.276Z,3.33
2019-03-25T22:11:13.470Z,3.73
2019-03-25T22:13:49.846Z,3.43
2019-03-25T22:16:22.233Z,3.13
2019-03-25T22:18:55.300Z,2.53
2019-03-25T22:21:30.486Z,3.60
2019-03-25T22:24:02.396Z,3.00
2019-03-25T22:26:35.122Z,3.30
2019-03-25T22:29:08.117Z,2.87
2019-03-25T22:31:41.194Z,3.20
2019-03-25T22:34:15.524Z,2.50
2019-03-25T22:36:47.376Z,2.87
2019-03-25T22:39:19.377Z,3.17
2019-03-25T22:41:51.630Z,2.73
2019-03-25T22:44:24.388Z,2.50
2019-03-25T22:46:58.012Z,2.77
2019-03-25T22:49:30.391Z,2.42
2019-03-25T22:52:02.494Z,2.77
2019-03-25T22:54:36.565Z,3.10
2019-03-25T22:57:10.103Z,3.27
2019-03-25T22:59:42.510Z,3.20
2019-03-25T23:02:15.489Z,3.60
2019-03-25T23:04:50.284Z,3.30
2019-03-25T23:07:24.546Z,3.20
2019-03-25T23:09:59.345Z,3.77
2019-03-25T23:12:33.928Z,4.17
2019-03-25T23:15:07.784Z,4.17
2019-03-25T23:17:39.567Z,4.20
2019-03-25T23:20:13.452Z,4.17
2019-03-25T23:22:48.321Z,4.00
2019-03-25T23:25:21.541Z,4.73
2019-03-25T23:27:54.648Z,5.07
2019-03-25T23:30:27.530Z,5.05
2019-03-25T23:33:01.606Z,4.97
2019-03-25T23:35:34.585Z,11.93
2019-03-25T23:38:08.543Z,5.53
2019-03-25T23:40:42.655Z,7.00
2019-03-25T23:43:15.105Z,6.63
2019-03-25T23:45:48.619Z,6.80
2019-03-25T23:48:21.591Z,6.10
2019-03-25T23:50:54.698Z,6.50
2019-03-25T23:53:27.636Z,6.57
2019-03-25T23:56:00.762Z,6.50
2019-03-25T23:58:34.631Z,6.40
